Flight Track Log - Related Links

Times and Time Zones

All times are in EDT time to prevent confusion due to time zone crossing. See the SWA232 flight status page for this flight to view local times or setup timezone preferences in your user account.

Time Position Orientation Groundspeed Altitude Reporting Facility
EDT Latitude Longitude Course Direction KTS MPH feet Rate Location/Type
Sun 06:51:30 AM 42.9500 -71.4333 328° Northwest 156 180 1,300  Level KA90
Sun 06:52:48 AM 43.0050 -71.4806 328° Northwest 196 226 4,200 2,696 Climbing Boston Center
Sun 06:53:48 AM 43.0472 -71.5622 305° West 221 254 7,500 3,300 Climbing Boston Center
Sun 06:54:48 AM 43.0500 -71.6558 272° West 260 299 10,800 3,000 Climbing Boston Center
Sun 06:55:48 AM 43.0572 -71.7922 274° West 311 358 13,500 2,800 Climbing Boston Center
Sun 06:56:48 AM 43.0619 -71.9144 273° West 350 403 16,400 2,600 Climbing Boston Center
Sun 06:57:48 AM 43.0667 -72.0422 273° West 374 430 18,700 2,650 Climbing Boston Center
Sun 06:58:48 AM 43.0733 -72.2014 273° West 379 436 21,700 2,600 Climbing Boston Center
Sun 06:59:48 AM 43.0881 -72.3492 278° West 391 450 23,900 2,200 Climbing Boston Center
Sun 07:00:48 AM 43.0922 -72.5025 272° West 396 456 26,100 2,150 Climbing Boston Center
Sun 07:01:48 AM 43.0900 -72.6789 269° West 418 481 28,200 1,950 Climbing Boston Center
Sun 07:02:48 AM 43.0958 -72.8408 273° West 424 488 30,000 2,100 Climbing Boston Center
Sun 07:03:48 AM 43.1014 -73.0031 273° West 429 494 32,400 1,950 Climbing Boston Center
Sun 07:04:48 AM 43.1089 -73.1425 274° West 422 486 33,900 1,600 Climbing Boston Center
Sun 07:05:48 AM 43.1139 -73.3161 272° West 422 486 35,600 1,400 Climbing Boston Center
Sun 07:06:48 AM 43.1150 -73.4525 271° West 417 480 36,700 1,200 Climbing Boston Center
Sun 07:07:48 AM 43.1175 -73.6064 271° West 412 474 38,000 650 Climbing Boston Center
Sun 07:08:48 AM 43.1222 -73.7572 273° West 407 468 38,000  Level Boston Center
Sun 07:09:48 AM 43.1267 -73.9081 272° West 402 463 38,000  Level Boston Center
Sun 07:10:48 AM 43.1308 -74.0589 272° West 402 463 38,000  Level Boston Center
Sun 07:11:48 AM 43.1350 -74.2069 272° West 402 463 38,000  Level Boston Center
Sun 07:12:48 AM 43.1367 -74.3578 271° West 402 463 38,000  Level Boston Center
Sun 07:13:48 AM 43.1403 -74.5031 272° West 402 463 38,000  Level Boston Center
Sun 07:14:48 AM 43.1417 -74.6511 271° West 397 457 38,000  Level Boston Center
Sun 07:15:48 AM 43.1450 -74.7992 272° West 397 457 38,000  Level Boston Center
Sun 07:16:48 AM 43.1481 -74.9472 272° West 397 457 38,000  Level Boston Center
Sun 07:17:48 AM 43.1486 -75.1067 270° West 392 451 38,000  Level Boston Center
Sun 07:18:48 AM 43.1514 -75.2578 271° West 392 451 38,000  Level Boston Center
Sun 07:19:48 AM 43.1539 -75.4058 271° West 397 457 38,000  Level Boston Center
Sun 07:20:48 AM 43.1561 -75.5539 271° West 397 457 38,000  Level Boston Center
Sun 07:21:48 AM 43.1581 -75.7050 271° West 397 457 38,000  Level Boston Center
Sun 07:22:48 AM 43.1600 -75.8531 271° West 397 457 38,000  Level Boston Center
Sun 07:23:49 AM 43.1619 -75.9986 271° West 397 457 38,000  Level Boston Center
Sun 07:24:48 AM 43.1614 -76.1436 270° West 392 451 38,000  Level Boston Center
Sun 07:26:33 AM 43.1092 -76.3797 253° West 372 428 38,000  Level Cleveland Center
Sun 07:27:33 AM 43.0639 -76.5164 246° West 385 443 38,000  Level Cleveland Center
Sun 07:28:33 AM 43.0186 -76.6528 246° West 390 449 38,000  Level Cleveland Center
Sun 07:29:33 AM 42.9753 -76.7861 246° West 395 455 38,000  Level Cleveland Center
Sun 07:30:33 AM 42.9317 -76.9192 246° West 390 449 38,000  Level Cleveland Center
Sun 07:31:33 AM 42.8897 -77.0519 247° West 390 449 38,000  Level Cleveland Center
Sun 07:32:33 AM 42.8458 -77.1847 246° West 390 449 38,000  Level Cleveland Center
Sun 07:33:33 AM 42.8017 -77.3175 246° West 390 449 38,000  Level Cleveland Center
Sun 07:34:33 AM 42.7594 -77.4497 247° West 385 443 38,000  Level Cleveland Center
Sun 07:35:33 AM 42.7092 -77.5992 245° Southwest 393 452 38,000  Level Cleveland Center
Sun 07:36:33 AM 42.6728 -77.7167 247° West 388 447 38,000  Level Cleveland Center
Sun 07:37:33 AM 42.6281 -77.8514 246° West 388 447 38,000  Level Cleveland Center
Sun 07:38:33 AM 42.5772 -77.9947 244° Southwest 388 447 38,000  Level Cleveland Center
Sun 07:39:33 AM 42.5342 -78.1261 246° West 388 447 38,000  Level Cleveland Center
Sun 07:40:33 AM 42.4889 -78.2544 244° Southwest 388 447 38,000  Level Cleveland Center
Sun 07:41:33 AM 42.4456 -78.3856 246° West 388 447 38,000  Level Cleveland Center
Sun 07:42:33 AM 42.4019 -78.5136 245° Southwest 388 447 38,000  Level Cleveland Center
Sun 07:43:33 AM 42.3544 -78.6472 244° Southwest 388 447 38,000  Level Cleveland Center
Sun 07:44:33 AM 42.3106 -78.7750 245° Southwest 388 447 38,000  Level Cleveland Center
Sun 07:45:33 AM 42.2747 -78.8825 246° West 388 447 38,000  Level Cleveland Center
Sun 07:46:33 AM 42.2206 -79.0356 244° Southwest 383 441 38,000 -550 Level Cleveland Center
Sun 07:47:33 AM 42.1764 -79.1628 245° Southwest 383 441 36,900 -1,000 Descending Cleveland Center
Sun 07:48:33 AM 42.1508 -79.2919 255° West 375 432 36,000 -450 Descending Cleveland Center
Sun 07:49:33 AM 42.1356 -79.4267 261° West 363 418 36,000  Level Cleveland Center
Sun 07:50:33 AM 42.1200 -79.5614 261° West 363 418 36,000  Level Cleveland Center
Sun 07:51:33 AM 42.1025 -79.6933 260° West 363 418 36,000  Level Cleveland Center
Sun 07:52:33 AM 42.0867 -79.8167 260° West 373 429 36,000  Level Cleveland Center
Sun 07:53:33 AM 42.0708 -79.9511 261° West 373 429 36,000  Level Cleveland Center
Sun 07:54:33 AM 42.0547 -80.0825 261° West 373 429 36,000  Level Cleveland Center
Sun 07:55:33 AM 42.0344 -80.2169 259° West 368 423 36,000  Level Cleveland Center
Sun 07:56:33 AM 42.0203 -80.3539 262° West 375 432 36,000  Level Cleveland Center
Sun 07:57:33 AM 41.9994 -80.4994 259° West 370 426 36,000  Level Cleveland Center
Sun 07:58:33 AM 41.9828 -80.6333 261° West 370 426 36,000  Level Cleveland Center
Sun 07:59:33 AM 41.9639 -80.7703 260° West 370 426 36,000  Level Cleveland Center
Sun 08:00:33 AM 41.9469 -80.9042 260° West 375 432 36,000  Level Cleveland Center
Sun 08:01:33 AM 41.9278 -81.0381 259° West 375 432 36,000  Level Cleveland Center
Sun 08:02:33 AM 41.9106 -81.1719 260° West 370 426 36,000  Level Cleveland Center
Sun 08:03:33 AM 41.8911 -81.3056 259° West 370 426 36,000  Level Cleveland Center
Sun 08:04:33 AM 41.8714 -81.4392 259° West 370 426 36,000  Level Cleveland Center
Sun 08:05:33 AM 41.8556 -81.5756 261° West 375 432 36,000  Level Cleveland Center
Sun 08:06:33 AM 41.8356 -81.7092 259° West 375 432 36,000  Level Cleveland Center
Sun 08:07:33 AM 41.8156 -81.8453 259° West 369 425 36,000  Level Cleveland Center
Sun 08:08:33 AM 41.7950 -81.9842 259° West 379 436 36,000  Level Cleveland Center
Sun 08:09:33 AM 41.7767 -82.1117 259° West 384 442 36,000  Level Cleveland Center
Sun 08:10:33 AM 41.7539 -82.2614 259° West 384 442 36,000  Level Cleveland Center
Sun 08:11:33 AM 41.7328 -82.4028 259° West 384 442 36,000  Level Cleveland Center
Sun 08:12:33 AM 41.7119 -82.5414 259° West 389 448 36,000  Level Cleveland Center
Sun 08:13:33 AM 41.6906 -82.6825 259° West 389 448 36,000  Level Cleveland Center
Sun 08:14:33 AM 41.6692 -82.8181 258° West 389 448 36,000  Level Cleveland Center
Sun 08:15:33 AM 41.6478 -82.9564 258° West 389 448 36,000  Level Cleveland Center
Sun 08:16:33 AM 41.6306 -83.0806 260° West 389 448 36,000  Level Cleveland Center
Sun 08:17:33 AM 41.6042 -83.2325 257° West 389 448 36,000  Level Cleveland Center
Sun 08:18:33 AM 41.5819 -83.3703 258° West 389 448 36,000  Level Cleveland Center
Sun 08:19:33 AM 41.5619 -83.5083 259° West 389 448 36,000  Level Cleveland Center
Sun 08:20:33 AM 41.5394 -83.6514 258° West 389 448 36,000  Level Cleveland Center
Sun 08:21:33 AM 41.5167 -83.7919 258° West 389 448 36,000  Level Cleveland Center
Sun 08:22:33 AM 41.4939 -83.9350 258° West 389 448 36,000  Level Cleveland Center
Sun 08:23:33 AM 41.4708 -84.0806 258° West 389 448 36,000 -654 Level Cleveland Center
Sun 08:25:09 AM 41.4675 -84.3053 269° West 402 463 34,300 -1,376 Descending Chicago Center
Sun 08:26:10 AM 41.4733 -84.4539 273° West 402 463 32,400 -1,869 Descending Chicago Center
Sun 08:27:11 AM 41.4789 -84.5997 273° West 395 455 30,500 -1,171 Descending Chicago Center
Sun 08:28:13 AM 41.4844 -84.7461 273° West 396 456 30,000 -488 Descending Chicago Center
Sun 08:29:14 AM 41.4900 -84.8992 273° West 409 471 29,500 -738 Descending Chicago Center
Sun 08:30:15 AM 41.4958 -85.0553 273° West 418 481 28,500 -934 Descending Chicago Center
Sun 08:31:16 AM 41.5003 -85.2139 272° West 424 488 27,600 -1,024 Descending Chicago Center
Sun 08:32:18 AM 41.5044 -85.3756 272° West 428 493 26,400 -1,707 Descending Chicago Center
Sun 08:33:19 AM 41.5100 -85.5339 273° West 421 484 24,100 -2,213 Descending Chicago Center
Sun 08:34:20 AM 41.5153 -85.6831 273° West 402 463 21,900 -2,164 Descending Chicago Center
Sun 08:35:21 AM 41.5194 -85.8297 272° West 395 455 19,700 -2,293 Descending Chicago Center
Sun 08:36:23 AM 41.5236 -85.9975 272° West 376 433 17,200 -2,244 Descending Chicago Center
Sun 08:37:24 AM 41.5236 -86.1325 270° West 366 421 15,100 -2,115 Descending Chicago Center
Sun 08:38:25 AM 41.5231 -86.2639 270° West 356 410 12,900 -2,000 Descending Chicago Center
Sun 08:39:27 AM 41.5231 -86.3925 270° West 346 398 11,000 -1,415 Descending Chicago Center
Sun 08:40:28 AM 41.5214 -86.5114 269° West 318 366 10,000 -492 Descending Chicago Center
Sun 08:41:29 AM 41.5208 -86.6294 270° West 317 365 10,000  Level Chicago Center
Sun 08:42:31 AM 41.5208 -86.7592 270° West 309 356 10,000  Level Chicago Center
Sun 08:43:32 AM 41.5189 -86.8586 269° West 275 316 10,000 -639 Level Chicago Center
Sun 08:44:33 AM 41.5183 -86.9614 270° West 276 318 8,700 -1,366 Descending Chicago Center
Sun 08:45:35 AM 41.5161 -87.0617 268° West 274 315 7,200 -1,421 Descending Chicago Center
Sun 08:46:27 AM 41.5167 -87.1500 271° West 271 312 6,000 -1,179 Descending Chicago TRACON
Sun 08:47:27 AM 41.5167 -87.2500 270° West 270 311 5,000 -1,000 Descending Chicago TRACON
Sun 08:48:27 AM 41.5333 -87.3500 283° West 267 307 4,000 -500 Descending Chicago TRACON
Sun 08:49:27 AM 41.5500 -87.4500 283° West 263 303 4,000  Level Chicago TRACON
Sun 08:50:27 AM 41.5667 -87.5333 285° West 268 308 4,000  Level Chicago TRACON
Sun 08:50:42 AM 41.5728 -87.5617 286° West 265 305 4,000  Level Chicago Center
Sun 08:51:43 AM 41.5897 -87.6564 283° West 265 305 4,000  Level Chicago Center
Sun 08:52:44 AM 41.5975 -87.7553 276° West 269 310 4,000  Level Chicago Center
Sun 08:53:46 AM 41.6064 -87.8439 278° West 258 297 4,000  Level Chicago Center
Sun 08:54:47 AM 41.6186 -87.9125 283° West 228 262 4,000 -585 Level Chicago Center
Sun 08:55:49 AM 41.6733 -87.8947 14° North 198 228 2,800 -891 Descending Chicago Center
Sun 08:56:28 AM 41.7000 -87.8667 38° Northeast 169 194 2,500 -424 Descending Chicago TRACON
Sun 08:57:28 AM 41.7333 -87.8167 48° Northeast 154 177 2,100 -579 Descending Chicago TRACON
Sun 08:58:22 AM 41.7500 -87.8000 37° Northeast 136 157 1,400 -486 Descending Chicago TRACON
Sun 08:59:56 AM 41.7919 -87.7442 45° Northeast 148 170 900 -319 Descending Chicago Center

Login

Don't have an account? Register now (free) for customized features, flight alerts, and more!